sensor_id;sensor_type;location;lat;lon;timestamp;pressure;altitude;pressure_sealevel;temperature;humidity
61939;BME280;47897;50.322;18.892;2022-08-23T00:02:06;57885.45;;;-145.38;84.68
61939;BME280;47897;50.322;18.892;2022-08-23T00:04:37;57882.04;;;-145.38;84.81
61939;BME280;47897;50.322;18.892;2022-08-23T00:07:06;57868.88;;;-145.38;84.75
61939;BME280;47897;50.322;18.892;2022-08-23T00:09:33;57868.45;;;-145.38;84.86
61939;BME280;47897;50.322;18.892;2022-08-23T00:12:17;57864.20;;;-145.38;84.87
61939;BME280;47897;50.322;18.892;2022-08-23T00:14:50;57870.15;;;-145.38;84.84
61939;BME280;47897;50.322;18.892;2022-08-23T00:17:18;57873.55;;;-145.38;84.81
61939;BME280;47897;50.322;18.892;2022-08-23T00:19:46;57874.40;;;-145.38;84.78
61939;BME280;47897;50.322;18.892;2022-08-23T00:22:14;57871.43;;;-145.38;84.78
61939;BME280;47897;50.322;18.892;2022-08-23T00:24:42;57875.68;;;-145.38;84.82
61939;BME280;47897;50.322;18.892;2022-08-23T00:27:13;57879.93;;;-145.38;84.81
61939;BME280;47897;50.322;18.892;2022-08-23T00:32:10;57883.32;;;-145.38;84.59
61939;BME280;47897;50.322;18.892;2022-08-23T00:34:39;57858.25;;;-145.38;84.59
61939;BME280;47897;50.322;18.892;2022-08-23T00:37:07;57865.90;;;-145.38;84.68
61939;BME280;47897;50.322;18.892;2022-08-23T00:39:35;57869.30;;;-145.38;84.85
61939;BME280;47897;50.322;18.892;2022-08-23T00:45:26;57859.95;;;-145.38;84.87
61939;BME280;47897;50.322;18.892;2022-08-23T00:48:15;57874.40;;;-145.38;84.83
61939;BME280;47897;50.322;18.892;2022-08-23T00:53:24;57878.23;;;-145.38;84.58
61939;BME280;47897;50.322;18.892;2022-08-23T00:55:51;57867.60;;;-145.38;84.51
61939;BME280;47897;50.322;18.892;2022-08-23T00:58:20;57889.27;;;-145.38;84.63
61939;BME280;47897;50.322;18.892;2022-08-23T01:00:49;57877.80;;;-145.38;84.86
61939;BME280;47897;50.322;18.892;2022-08-23T01:03:18;57862.07;;;-145.38;84.83
61939;BME280;47897;50.322;18.892;2022-08-23T01:05:52;57868.02;;;-145.38;84.82
61939;BME280;47897;50.322;18.892;2022-08-23T01:08:23;57867.60;;;-145.38;84.69
61939;BME280;47897;50.322;18.892;2022-08-23T01:10:58;57876.10;;;-145.38;84.63
61939;BME280;47897;50.322;18.892;2022-08-23T01:13:38;57873.13;;;-145.38;84.58
61939;BME280;47897;50.322;18.892;2022-08-23T01:16:14;57881.20;;;-145.38;84.55
61939;BME280;47897;50.322;18.892;2022-08-23T01:18:42;57880.35;;;-145.38;84.55
61939;BME280;47897;50.322;18.892;2022-08-23T01:23:46;57871.43;;;-145.38;84.55
61939;BME280;47897;50.322;18.892;2022-08-23T01:26:17;57882.04;;;-145.38;84.56
61939;BME280;47897;50.322;18.892;2022-08-23T01:28:44;57869.30;;;-145.38;84.56
61939;BME280;47897;50.322;18.892;2022-08-23T01:31:12;57853.15;;;-145.38;84.60
61939;BME280;47897;50.322;18.892;2022-08-23T01:33:42;57872.70;;;-145.38;84.67
61939;BME280;47897;50.322;18.892;2022-08-23T01:36:11;57855.70;;;-145.38;84.66
61939;BME280;47897;50.322;18.892;2022-08-23T01:38:38;57879.07;;;-145.38;84.70
61939;BME280;47897;50.322;18.892;2022-08-23T01:41:06;57862.50;;;-145.38;84.59
61939;BME280;47897;50.322;18.892;2022-08-23T01:43:33;57882.90;;;-145.38;84.50
61939;BME280;47897;50.322;18.892;2022-08-23T01:46:12;57863.35;;;-145.38;84.44
61939;BME280;47897;50.322;18.892;2022-08-23T01:48:40;57869.73;;;-145.38;84.49
61939;BME280;47897;50.322;18.892;2022-08-23T01:51:07;57877.38;;;-145.38;84.45
61939;BME280;47897;50.322;18.892;2022-08-23T01:53:34;57873.12;;;-145.38;84.56
61939;BME280;47897;50.322;18.892;2022-08-23T01:56:03;57862.93;;;-145.38;84.58
61939;BME280;47897;50.322;18.892;2022-08-23T01:58:32;57878.65;;;-145.38;84.48
61939;BME280;47897;50.322;18.892;2022-08-23T02:01:01;57869.73;;;-145.38;84.48
61939;BME280;47897;50.322;18.892;2022-08-23T02:03:31;57863.35;;;-145.38;84.63
61939;BME280;47897;50.322;18.892;2022-08-23T02:05:58;57882.05;;;-145.38;84.82
61939;BME280;47897;50.322;18.892;2022-08-23T02:08:25;57872.27;;;-145.38;84.78
61939;BME280;47897;50.322;18.892;2022-08-23T02:11:14;57878.23;;;-145.38;84.75
61939;BME280;47897;50.322;18.892;2022-08-23T02:13:43;57859.53;;;-145.38;84.80
61939;BME280;47897;50.322;18.892;2022-08-23T02:16:10;57868.88;;;-145.38;84.52
61939;BME280;47897;50.322;18.892;2022-08-23T02:18:37;57876.52;;;-145.38;84.33
61939;BME280;47897;50.322;18.892;2022-08-23T02:21:04;57864.63;;;-145.38;84.29
61939;BME280;47897;50.322;18.892;2022-08-23T02:23:31;57878.65;;;-145.38;84.48
61939;BME280;47897;50.322;18.892;2022-08-23T02:25:58;57875.68;;;-145.38;84.66
61939;BME280;47897;50.322;18.892;2022-08-23T02:28:25;57861.65;;;-145.38;84.85
61939;BME280;47897;50.322;18.892;2022-08-23T02:30:52;57873.13;;;-145.38;85.05
61939;BME280;47897;50.322;18.892;2022-08-23T02:33:19;57886.73;;;-145.38;85.13
61939;BME280;47897;50.322;18.892;2022-08-23T02:35:47;57861.23;;;-145.38;85.02
61939;BME280;47897;50.322;18.892;2022-08-23T02:38:16;57875.25;;;-145.38;85.02
61939;BME280;47897;50.322;18.892;2022-08-23T02:40:43;57880.35;;;-145.38;85.00
61939;BME280;47897;50.322;18.892;2022-08-23T02:43:10;57877.38;;;-145.38;84.96
61939;BME280;47897;50.322;18.892;2022-08-23T02:45:38;57881.20;;;-145.38;84.94
61939;BME280;47897;50.322;18.892;2022-08-23T02:48:05;57862.93;;;-145.38;84.90
61939;BME280;47897;50.322;18.892;2022-08-23T02:50:34;57883.75;;;-145.38;84.90
61939;BME280;47897;50.322;18.892;2022-08-23T02:53:02;57869.30;;;-145.38;84.89
61939;BME280;47897;50.322;18.892;2022-08-23T02:55:29;57870.57;;;-145.38;85.00
61939;BME280;47897;50.322;18.892;2022-08-23T02:57:56;57867.60;;;-145.38;84.93
61939;BME280;47897;50.322;18.892;2022-08-23T03:00:24;57880.77;;;-145.38;84.85
61939;BME280;47897;50.322;18.892;2022-08-23T03:02:51;57877.80;;;-145.38;84.91
61939;BME280;47897;50.322;18.892;2022-08-23T03:05:18;57876.95;;;-145.38;84.90
61939;BME280;47897;50.322;18.892;2022-08-23T03:07:45;57871.43;;;-145.38;84.83
61939;BME280;47897;50.322;18.892;2022-08-23T03:10:13;57859.96;;;-145.38;84.89
61939;BME280;47897;50.322;18.892;2022-08-23T03:12:41;57887.14;;;-145.38;84.87
61939;BME280;47897;50.322;18.892;2022-08-23T03:15:09;57868.02;;;-145.38;84.97
61939;BME280;47897;50.322;18.892;2022-08-23T03:17:37;57879.50;;;-145.38;85.15
61939;BME280;47897;50.322;18.892;2022-08-23T03:20:05;57884.17;;;-145.38;85.11
61939;BME280;47897;50.322;18.892;2022-08-23T03:22:32;57879.49;;;-145.38;85.15
61939;BME280;47897;50.322;18.892;2022-08-23T03:25:00;57879.93;;;-145.38;85.16
61939;BME280;47897;50.322;18.892;2022-08-23T03:27:27;57877.38;;;-145.38;85.05
61939;BME280;47897;50.322;18.892;2022-08-23T03:29:53;57869.29;;;-145.38;85.14
61939;BME280;47897;50.322;18.892;2022-08-23T03:32:20;57882.04;;;-145.38;85.14
61939;BME280;47897;50.322;18.892;2022-08-23T03:34:47;57884.17;;;-145.38;85.11
61939;BME280;47897;50.322;18.892;2022-08-23T03:37:14;57884.60;;;-145.38;85.11
61939;BME280;47897;50.322;18.892;2022-08-23T03:39:42;57875.68;;;-145.38;85.18
61939;BME280;47897;50.322;18.892;2022-08-23T03:42:09;57875.68;;;-145.38;85.34
61939;BME280;47897;50.322;18.892;2022-08-23T03:44:36;57864.20;;;-145.38;85.33
61939;BME280;47897;50.322;18.892;2022-08-23T03:47:04;57882.90;;;-145.38;85.31
61939;BME280;47897;50.322;18.892;2022-08-23T03:49:32;57884.60;;;-145.38;85.38
61939;BME280;47897;50.322;18.892;2022-08-23T03:51:59;57879.07;;;-145.38;85.32
61939;BME280;47897;50.322;18.892;2022-08-23T03:54:26;57877.80;;;-145.38;85.25
61939;BME280;47897;50.322;18.892;2022-08-23T03:57:01;57893.10;;;-145.38;85.31
61939;BME280;47897;50.322;18.892;2022-08-23T03:59:29;57873.98;;;-145.38;85.36
61939;BME280;47897;50.322;18.892;2022-08-23T04:01:58;57873.98;;;-145.38;85.44
61939;BME280;47897;50.322;18.892;2022-08-23T04:04:25;57882.48;;;-145.38;85.56
61939;BME280;47897;50.322;18.892;2022-08-23T04:06:53;57890.12;;;-145.38;85.72
61939;BME280;47897;50.322;18.892;2022-08-23T04:09:21;57877.80;;;-145.38;85.72
61939;BME280;47897;50.322;18.892;2022-08-23T04:11:48;57889.70;;;-145.38;85.75
61939;BME280;47897;50.322;18.892;2022-08-23T04:14:17;57879.07;;;-145.38;85.87
61939;BME280;47897;50.322;18.892;2022-08-23T04:16:44;57878.65;;;-145.38;85.96
61939;BME280;47897;50.322;18.892;2022-08-23T04:19:13;57880.35;;;-145.38;86.05
61939;BME280;47897;50.322;18.892;2022-08-23T04:21:46;57871.85;;;-145.38;86.30
61939;BME280;47897;50.322;18.892;2022-08-23T04:24:14;57878.23;;;-145.38;86.52
61939;BME280;47897;50.322;18.892;2022-08-23T04:26:42;57883.32;;;-145.38;86.60
61939;BME280;47897;50.322;18.892;2022-08-23T04:29:09;57854.00;;;-145.38;86.75
61939;BME280;47897;50.322;18.892;2022-08-23T04:31:37;57887.14;;;-145.38;86.68
61939;BME280;47897;50.322;18.892;2022-08-23T04:34:04;57884.18;;;-145.38;86.71
61939;BME280;47897;50.322;18.892;2022-08-23T04:36:34;57880.34;;;-145.38;86.67
61939;BME280;47897;50.322;18.892;2022-08-23T04:39:03;57877.38;;;-145.38;86.62
61939;BME280;47897;50.322;18.892;2022-08-23T04:41:30;57855.27;;;-145.38;86.59
61939;BME280;47897;50.322;18.892;2022-08-23T04:44:16;57885.02;;;-145.38;86.61
61939;BME280;47897;50.322;18.892;2022-08-23T04:46:43;57868.45;;;-145.38;86.51
61939;BME280;47897;50.322;18.892;2022-08-23T04:49:10;57878.65;;;-145.38;86.46
61939;BME280;47897;50.322;18.892;2022-08-23T04:51:38;57868.45;;;-145.38;86.38
61939;BME280;47897;50.322;18.892;2022-08-23T04:54:05;57870.15;;;-145.38;86.35
61939;BME280;47897;50.322;18.892;2022-08-23T04:56:33;57872.27;;;-145.38;86.21
61939;BME280;47897;50.322;18.892;2022-08-23T04:59:00;57877.80;;;-145.38;86.18
61939;BME280;47897;50.322;18.892;2022-08-23T05:01:27;57876.10;;;-145.38;86.26
61939;BME280;47897;50.322;18.892;2022-08-23T05:03:54;57882.05;;;-145.38;86.48
61939;BME280;47897;50.322;18.892;2022-08-23T05:06:22;57873.13;;;-145.38;86.61
61939;BME280;47897;50.322;18.892;2022-08-23T05:08:50;57872.27;;;-145.38;86.66
61939;BME280;47897;50.322;18.892;2022-08-23T05:11:16;57881.20;;;-145.38;86.73
61939;BME280;47897;50.322;18.892;2022-08-23T05:13:44;57879.07;;;-145.38;86.79
61939;BME280;47897;50.322;18.892;2022-08-23T05:16:12;57884.60;;;-145.38;86.82
61939;BME280;47897;50.322;18.892;2022-08-23T05:18:39;57881.20;;;-145.38;86.83
61939;BME280;47897;50.322;18.892;2022-08-23T05:21:07;57885.45;;;-145.38;86.92
61939;BME280;47897;50.322;18.892;2022-08-23T05:23:39;57879.07;;;-145.38;86.86
61939;BME280;47897;50.322;18.892;2022-08-23T05:26:05;57885.88;;;-145.38;86.75
61939;BME280;47897;50.322;18.892;2022-08-23T05:28:34;57873.98;;;-145.38;86.55
61939;BME280;47897;50.322;18.892;2022-08-23T05:31:30;57885.02;;;-145.38;86.56
61939;BME280;47897;50.322;18.892;2022-08-23T05:33:58;57876.95;;;-145.38;86.69
61939;BME280;47897;50.322;18.892;2022-08-23T05:36:25;57878.23;;;-145.38;86.68
61939;BME280;47897;50.322;18.892;2022-08-23T05:38:52;57889.27;;;-145.38;86.68
61939;BME280;47897;50.322;18.892;2022-08-23T05:41:19;57885.45;;;-145.38;86.80
61939;BME280;47897;50.322;18.892;2022-08-23T05:43:47;57877.80;;;-145.38;86.97
61939;BME280;47897;50.322;18.892;2022-08-23T05:46:18;57879.50;;;-145.38;86.98
61939;BME280;47897;50.322;18.892;2022-08-23T05:48:48;57872.27;;;-145.38;86.87
61939;BME280;47897;50.322;18.892;2022-08-23T05:53:50;57887.57;;;-145.38;86.85
61939;BME280;47897;50.322;18.892;2022-08-23T05:56:20;57879.07;;;-145.38;86.94
61939;BME280;47897;50.322;18.892;2022-08-23T05:58:50;57887.15;;;-145.38;87.03
61939;BME280;47897;50.322;18.892;2022-08-23T06:01:18;57881.62;;;-145.38;87.07
61939;BME280;47897;50.322;18.892;2022-08-23T06:03:46;57896.93;;;-145.38;87.29
61939;BME280;47897;50.322;18.892;2022-08-23T06:06:14;57889.27;;;-145.38;87.37
61939;BME280;47897;50.322;18.892;2022-08-23T06:08:42;57871.43;;;-145.38;87.38
61939;BME280;47897;50.322;18.892;2022-08-23T06:11:15;57876.95;;;-145.38;87.37
61939;BME280;47897;50.322;18.892;2022-08-23T06:13:45;57881.20;;;-145.38;87.24
61939;BME280;47897;50.322;18.892;2022-08-23T06:16:14;57878.23;;;-145.38;87.21
61939;BME280;47897;50.322;18.892;2022-08-23T06:18:42;57871.43;;;-145.38;87.11
61939;BME280;47897;50.322;18.892;2022-08-23T06:21:12;57897.77;;;-145.38;87.09
61939;BME280;47897;50.322;18.892;2022-08-23T06:23:39;57869.30;;;-145.38;87.17
61939;BME280;47897;50.322;18.892;2022-08-23T06:26:12;57878.65;;;-145.38;87.11
61939;BME280;47897;50.322;18.892;2022-08-23T06:28:41;57897.34;;;-145.38;87.16
61939;BME280;47897;50.322;18.892;2022-08-23T06:31:09;57879.93;;;-145.38;87.09
61939;BME280;47897;50.322;18.892;2022-08-23T06:33:39;57888.43;;;-145.38;87.02
61939;BME280;47897;50.322;18.892;2022-08-23T06:36:09;57890.13;;;-145.38;86.96
61939;BME280;47897;50.322;18.892;2022-08-23T06:38:39;57866.32;;;-145.38;86.94
61939;BME280;47897;50.322;18.892;2022-08-23T06:41:09;57874.82;;;-145.38;87.06
61939;BME280;47897;50.322;18.892;2022-08-23T06:43:38;57874.82;;;-145.38;86.97
61939;BME280;47897;50.322;18.892;2022-08-23T06:48:36;57876.52;;;-145.38;86.80
61939;BME280;47897;50.322;18.892;2022-08-23T06:51:29;57883.32;;;-145.38;86.99
61939;BME280;47897;50.322;18.892;2022-08-23T06:53:58;57866.75;;;-145.38;86.88
61939;BME280;47897;50.322;18.892;2022-08-23T06:56:27;57887.15;;;-145.38;86.74
61939;BME280;47897;50.322;18.892;2022-08-23T06:58:54;57871.43;;;-145.38;86.74
61939;BME280;47897;50.322;18.892;2022-08-23T07:01:46;57881.20;;;-145.38;86.71
61939;BME280;47897;50.322;18.892;2022-08-23T07:04:17;57872.27;;;-145.38;86.60
61939;BME280;47897;50.322;18.892;2022-08-23T07:06:45;57867.60;;;-145.38;86.57
61939;BME280;47897;50.322;18.892;2022-08-23T07:09:12;57877.80;;;-145.38;86.47
61939;BME280;47897;50.322;18.892;2022-08-23T07:11:40;57872.70;;;-145.38;86.38
61939;BME280;47897;50.322;18.892;2022-08-23T07:14:15;57879.93;;;-145.38;86.60
61939;BME280;47897;50.322;18.892;2022-08-23T07:16:48;57879.07;;;-145.38;86.54
61939;BME280;47897;50.322;18.892;2022-08-23T07:19:19;57892.25;;;-145.38;86.42
61939;BME280;47897;50.322;18.892;2022-08-23T07:21:47;57885.02;;;-145.38;86.31
61939;BME280;47897;50.322;18.892;2022-08-23T07:24:16;57885.45;;;-145.38;86.19
61939;BME280;47897;50.322;18.892;2022-08-23T07:26:45;57879.49;;;-145.38;86.15
61939;BME280;47897;50.322;18.892;2022-08-23T07:29:14;57884.18;;;-145.38;85.80
61939;BME280;47897;50.322;18.892;2022-08-23T07:31:45;57892.67;;;-145.38;86.02
61939;BME280;47897;50.322;18.892;2022-08-23T07:34:13;57877.38;;;-145.38;86.12
61939;BME280;47897;50.322;18.892;2022-08-23T07:36:42;57875.68;;;-145.38;85.75
61939;BME280;47897;50.322;18.892;2022-08-23T07:39:10;57876.09;;;-145.38;85.55
61939;BME280;47897;50.322;18.892;2022-08-23T07:41:38;57868.02;;;-145.38;85.58
61939;BME280;47897;50.322;18.892;2022-08-23T07:44:09;57882.48;;;-145.38;85.53
61939;BME280;47897;50.322;18.892;2022-08-23T07:46:38;57886.73;;;-145.38;85.37
61939;BME280;47897;50.322;18.892;2022-08-23T07:49:07;57888.00;;;-145.38;85.23
61939;BME280;47897;50.322;18.892;2022-08-23T07:51:37;57885.45;;;-145.38;84.94
61939;BME280;47897;50.322;18.892;2022-08-23T07:54:08;57878.23;;;-145.38;84.76
61939;BME280;47897;50.322;18.892;2022-08-23T07:56:35;57882.47;;;-145.38;84.62
61939;BME280;47897;50.322;18.892;2022-08-23T07:59:04;57881.63;;;-145.38;84.60
61939;BME280;47897;50.322;18.892;2022-08-23T08:01:32;57888.00;;;-145.38;84.72
61939;BME280;47897;50.322;18.892;2022-08-23T08:04:00;57877.38;;;-145.38;84.61
61939;BME280;47897;50.322;18.892;2022-08-23T08:06:43;57874.82;;;-145.38;84.51
61939;BME280;47897;50.322;18.892;2022-08-23T08:09:12;57882.48;;;-145.38;84.52
61939;BME280;47897;50.322;18.892;2022-08-23T08:11:42;57888.00;;;-145.38;84.44
61939;BME280;47897;50.322;18.892;2022-08-23T08:14:10;57872.70;;;-145.38;84.48
61939;BME280;47897;50.322;18.892;2022-08-23T08:16:43;57871.00;;;-145.38;84.39
61939;BME280;47897;50.322;18.892;2022-08-23T08:19:13;57870.57;;;-145.38;84.14
61939;BME280;47897;50.322;18.892;2022-08-23T08:21:41;57869.30;;;-145.38;83.89
61939;BME280;47897;50.322;18.892;2022-08-23T08:24:11;57887.57;;;-145.38;83.46
61939;BME280;47897;50.322;18.892;2022-08-23T08:26:41;57876.52;;;-145.38;83.21
61939;BME280;47897;50.322;18.892;2022-08-23T08:29:08;57876.10;;;-145.38;83.13
61939;BME280;47897;50.322;18.892;2022-08-23T08:31:40;57876.95;;;-145.38;83.08
61939;BME280;47897;50.322;18.892;2022-08-23T08:34:08;57874.82;;;-145.38;82.97
61939;BME280;47897;50.322;18.892;2022-08-23T08:39:07;57884.59;;;-145.38;82.41
61939;BME280;47897;50.322;18.892;2022-08-23T08:44:51;57871.85;;;-145.38;81.72
61939;BME280;47897;50.322;18.892;2022-08-23T08:47:44;57868.02;;;-145.38;81.61
61939;BME280;47897;50.322;18.892;2022-08-23T08:52:48;57870.15;;;-145.38;81.70
61939;BME280;47897;50.322;18.892;2022-08-23T08:55:24;57868.02;;;-145.38;81.65
61939;BME280;47897;50.322;18.892;2022-08-23T08:57:53;57871.85;;;-145.38;81.67
61939;BME280;47897;50.322;18.892;2022-08-23T09:00:28;57865.05;;;-145.38;81.72
61939;BME280;47897;50.322;18.892;2022-08-23T09:02:58;57861.23;;;-145.38;81.73
61939;BME280;47897;50.322;18.892;2022-08-23T09:05:30;57871.00;;;-145.38;80.85
61939;BME280;47897;50.322;18.892;2022-08-23T09:08:13;57886.30;;;-145.38;80.17
61939;BME280;47897;50.322;18.892;2022-08-23T09:13:53;57874.40;;;-145.38;79.04
61939;BME280;47897;50.322;18.892;2022-08-23T09:19:03;57864.63;;;-145.38;79.83
61939;BME280;47897;50.322;18.892;2022-08-23T09:21:59;57881.63;;;-145.38;80.07
61939;BME280;47897;50.322;18.892;2022-08-23T09:24:29;57873.98;;;-145.38;79.96
61939;BME280;47897;50.322;18.892;2022-08-23T09:26:56;57875.68;;;-145.38;80.08
61939;BME280;47897;50.322;18.892;2022-08-23T09:29:32;57871.00;;;-145.38;79.91
61939;BME280;47897;50.322;18.892;2022-08-23T09:32:47;57871.85;;;-145.38;79.75
61939;BME280;47897;50.322;18.892;2022-08-23T09:34:49;57883.75;;;-145.38;79.79
61939;BME280;47897;50.322;18.892;2022-08-23T09:37:22;57881.20;;;-145.38;79.77
61939;BME280;47897;50.322;18.892;2022-08-23T09:39:52;57871.00;;;-145.38;80.05
61939;BME280;47897;50.322;18.892;2022-08-23T09:42:40;57874.82;;;-145.38;80.12
61939;BME280;47897;50.322;18.892;2022-08-23T09:45:32;57853.16;;;-145.38;79.96
61939;BME280;47897;50.322;18.892;2022-08-23T09:47:59;57868.45;;;-145.38;79.73
61939;BME280;47897;50.322;18.892;2022-08-23T09:50:30;57864.20;;;-145.38;79.59
61939;BME280;47897;50.322;18.892;2022-08-23T09:53:04;57890.97;;;-145.38;79.35
61939;BME280;47897;50.322;18.892;2022-08-23T09:55:35;57863.77;;;-145.38;79.12
61939;BME280;47897;50.322;18.892;2022-08-23T09:58:35;57873.13;;;-145.38;78.69
61939;BME280;47897;50.322;18.892;2022-08-23T10:01:24;57880.35;;;-145.38;78.45
61939;BME280;47897;50.322;18.892;2022-08-23T10:04:12;57875.25;;;-145.38;78.72
61939;BME280;47897;50.322;18.892;2022-08-23T10:06:42;57871.85;;;-145.38;78.69
61939;BME280;47897;50.322;18.892;2022-08-23T10:09:31;57870.15;;;-145.38;78.47
61939;BME280;47897;50.322;18.892;2022-08-23T10:12:00;57875.25;;;-145.38;78.60
61939;BME280;47897;50.322;18.892;2022-08-23T10:14:29;57878.23;;;-145.38;79.56
61939;BME280;47897;50.322;18.892;2022-08-23T10:22:54;57874.82;;;-145.38;79.49
61939;BME280;47897;50.322;18.892;2022-08-23T10:31:50;57869.30;;;-145.38;78.65
61939;BME280;47897;50.322;18.892;2022-08-23T10:34:43;57867.60;;;-145.38;79.01
61939;BME280;47897;50.322;18.892;2022-08-23T10:40:00;57862.07;;;-145.38;79.42
61939;BME280;47897;50.322;18.892;2022-08-23T10:45:27;57884.18;;;-145.38;79.70
61939;BME280;47897;50.322;18.892;2022-08-23T10:51:03;57872.27;;;-145.38;79.22
61939;BME280;47897;50.322;18.892;2022-08-23T10:55:59;57863.35;;;-145.38;78.94
61939;BME280;47897;50.322;18.892;2022-08-23T11:01:05;57873.98;;;-145.38;78.57
61939;BME280;47897;50.322;18.892;2022-08-23T11:03:48;57869.30;;;-145.38;78.58
61939;BME280;47897;50.322;18.892;2022-08-23T11:09:07;57858.26;;;-145.38;78.89
61939;BME280;47897;50.322;18.892;2022-08-23T11:11:41;57870.15;;;-145.38;78.84
61939;BME280;47897;50.322;18.892;2022-08-23T11:14:26;57869.73;;;-145.38;78.71
61939;BME280;47897;50.322;18.892;2022-08-23T11:17:00;57880.35;;;-145.38;78.59
61939;BME280;47897;50.322;18.892;2022-08-23T11:19:55;57871.85;;;-145.38;78.41
61939;BME280;47897;50.322;18.892;2022-08-23T11:22:31;57869.73;;;-145.38;78.50
61939;BME280;47897;50.322;18.892;2022-08-23T11:25:50;57869.30;;;-145.38;78.57
61939;BME280;47897;50.322;18.892;2022-08-23T11:33:58;57871.85;;;-145.38;78.38
61939;BME280;47897;50.322;18.892;2022-08-23T11:36:28;57849.75;;;-145.38;78.71
61939;BME280;47897;50.322;18.892;2022-08-23T11:41:27;57876.10;;;-145.38;78.58
61939;BME280;47897;50.322;18.892;2022-08-23T11:49:10;57885.88;;;-145.38;78.64
61939;BME280;47897;50.322;18.892;2022-08-23T12:13:31;57867.60;;;-145.38;77.73
61939;BME280;47897;50.322;18.892;2022-08-23T12:21:22;57862.93;;;-145.38;76.79
61939;BME280;47897;50.322;18.892;2022-08-23T12:23:56;57869.73;;;-145.38;76.72
61939;BME280;47897;50.322;18.892;2022-08-23T12:29:23;57858.68;;;-145.38;75.93
61939;BME280;47897;50.322;18.892;2022-08-23T12:34:49;57865.90;;;-145.38;75.67
61939;BME280;47897;50.322;18.892;2022-08-23T12:39:55;57869.73;;;-145.38;74.85
61939;BME280;47897;50.322;18.892;2022-08-23T12:42:32;57862.07;;;-145.38;74.35
61939;BME280;47897;50.322;18.892;2022-08-23T12:47:29;57863.35;;;-145.38;72.94
61939;BME280;47897;50.322;18.892;2022-08-23T12:50:05;57874.39;;;-145.38;72.64
61939;BME280;47897;50.322;18.892;2022-08-23T12:52:34;57880.35;;;-145.38;72.42
61939;BME280;47897;50.322;18.892;2022-08-23T12:55:11;57845.93;;;-145.38;70.83
61939;BME280;47897;50.322;18.892;2022-08-23T12:57:39;57852.73;;;-145.38;70.46
61939;BME280;47897;50.322;18.892;2022-08-23T13:00:17;57863.35;;;-145.38;69.66
61939;BME280;47897;50.322;18.892;2022-08-23T13:03:37;57851.02;;;-145.38;71.03
61939;BME280;47897;50.322;18.892;2022-08-23T13:06:11;57875.68;;;-145.38;71.21
61939;BME280;47897;50.322;18.892;2022-08-23T13:08:59;57840.41;;;-145.38;70.36
61939;BME280;47897;50.322;18.892;2022-08-23T13:11:31;57849.32;;;-145.38;68.44
61939;BME280;47897;50.322;18.892;2022-08-23T13:13:59;57854.43;;;-145.38;68.88
61939;BME280;47897;50.322;18.892;2022-08-23T13:16:43;57847.21;;;-145.38;69.43
61939;BME280;47897;50.322;18.892;2022-08-23T13:19:28;57851.02;;;-145.38;70.89
61939;BME280;47897;50.322;18.892;2022-08-23T13:22:17;57859.52;;;-145.38;70.07
61939;BME280;47897;50.322;18.892;2022-08-23T13:24:59;57851.45;;;-145.38;69.55
61939;BME280;47897;50.322;18.892;2022-08-23T13:27:36;57849.75;;;-145.38;69.73
61939;BME280;47897;50.322;18.892;2022-08-23T13:32:40;57855.27;;;-145.38;69.64
61939;BME280;47897;50.322;18.892;2022-08-23T13:45:55;57851.88;;;-145.38;68.43
61939;BME280;47897;50.322;18.892;2022-08-23T13:48:31;57856.98;;;-145.38;68.87
61939;BME280;47897;50.322;18.892;2022-08-23T13:51:28;57856.98;;;-145.38;68.24
61939;BME280;47897;50.322;18.892;2022-08-23T13:54:00;57855.70;;;-145.38;68.13
61939;BME280;47897;50.322;18.892;2022-08-23T13:56:28;57873.98;;;-145.38;69.44
61939;BME280;47897;50.322;18.892;2022-08-23T13:59:06;57844.23;;;-145.38;68.18
61939;BME280;47897;50.322;18.892;2022-08-23T14:01:42;57847.63;;;-145.38;67.89
61939;BME280;47897;50.322;18.892;2022-08-23T14:04:10;57846.35;;;-145.38;68.51
61939;BME280;47897;50.322;18.892;2022-08-23T14:06:37;57849.32;;;-145.38;68.68
61939;BME280;47897;50.322;18.892;2022-08-23T14:09:04;57856.98;;;-145.38;67.72
61939;BME280;47897;50.322;18.892;2022-08-23T14:11:32;57853.57;;;-145.38;67.32
61939;BME280;47897;50.322;18.892;2022-08-23T14:13:59;57832.32;;;-145.38;67.40
61939;BME280;47897;50.322;18.892;2022-08-23T14:16:29;57858.25;;;-145.38;67.65
61939;BME280;47897;50.322;18.892;2022-08-23T14:18:57;57852.73;;;-145.38;66.81
61939;BME280;47897;50.322;18.892;2022-08-23T14:21:24;57846.36;;;-145.38;66.95
61939;BME280;47897;50.322;18.892;2022-08-23T14:23:51;57855.70;;;-145.38;67.00
61939;BME280;47897;50.322;18.892;2022-08-23T14:26:18;57850.18;;;-145.38;67.54
61939;BME280;47897;50.322;18.892;2022-08-23T14:28:48;57864.63;;;-145.38;67.66
61939;BME280;47897;50.322;18.892;2022-08-23T14:31:16;57840.83;;;-145.38;67.12
61939;BME280;47897;50.322;18.892;2022-08-23T14:33:43;57852.30;;;-145.38;67.65
61939;BME280;47897;50.322;18.892;2022-08-23T14:36:10;57841.26;;;-145.38;67.90
61939;BME280;47897;50.322;18.892;2022-08-23T14:38:38;57844.23;;;-145.38;66.56
61939;BME280;47897;50.322;18.892;2022-08-23T14:41:09;57848.48;;;-145.38;66.41
61939;BME280;47897;50.322;18.892;2022-08-23T14:43:36;57842.96;;;-145.38;66.03
61939;BME280;47897;50.322;18.892;2022-08-23T14:46:03;57841.25;;;-145.38;66.57
61939;BME280;47897;50.322;18.892;2022-08-23T14:48:30;57835.73;;;-145.38;67.09
61939;BME280;47897;50.322;18.892;2022-08-23T14:50:58;57845.93;;;-145.38;66.62
61939;BME280;47897;50.322;18.892;2022-08-23T14:53:27;57859.10;;;-145.38;66.98
61939;BME280;47897;50.322;18.892;2022-08-23T14:55:55;57858.25;;;-145.38;67.94